sensor_id;sensor_type;location;lat;lon;timestamp;temperature;humidity
7174;DHT22;3628;48.654;8.932;2024-02-14T00:00:53;2.20;99.90
7174;DHT22;3628;48.654;8.932;2024-02-14T00:03:19;2.20;99.90
7174;DHT22;3628;48.654;8.932;2024-02-14T00:05:45;2.20;99.90
7174;DHT22;3628;48.654;8.932;2024-02-14T00:08:11;2.30;99.90
7174;DHT22;3628;48.654;8.932;2024-02-14T00:10:39;2.30;99.90
7174;DHT22;3628;48.654;8.932;2024-02-14T00:13:04;2.30;99.90
7174;DHT22;3628;48.654;8.932;2024-02-14T00:15:30;2.30;99.90
7174;DHT22;3628;48.654;8.932;2024-02-14T00:17:56;2.30;99.90
7174;DHT22;3628;48.654;8.932;2024-02-14T00:20:21;2.40;99.90
7174;DHT22;3628;48.654;8.932;2024-02-14T00:22:47;2.40;99.90
7174;DHT22;3628;48.654;8.932;2024-02-14T00:25:13;2.50;99.90
7174;DHT22;3628;48.654;8.932;2024-02-14T00:27:39;2.60;99.90
7174;DHT22;3628;48.654;8.932;2024-02-14T00:30:06;2.60;99.90
7174;DHT22;3628;48.654;8.932;2024-02-14T00:32:31;2.70;99.90
7174;DHT22;3628;48.654;8.932;2024-02-14T00:34:58;2.80;99.90
7174;DHT22;3628;48.654;8.932;2024-02-14T00:37:24;2.90;99.90
7174;DHT22;3628;48.654;8.932;2024-02-14T00:39:50;2.90;99.90
7174;DHT22;3628;48.654;8.932;2024-02-14T00:42:17;2.90;99.90
7174;DHT22;3628;48.654;8.932;2024-02-14T00:44:42;2.90;99.90
7174;DHT22;3628;48.654;8.932;2024-02-14T00:47:08;3.00;99.90
7174;DHT22;3628;48.654;8.932;2024-02-14T00:49:36;3.10;99.90
7174;DHT22;3628;48.654;8.932;2024-02-14T00:52:03;3.10;99.90
7174;DHT22;3628;48.654;8.932;2024-02-14T00:54:29;3.20;99.90
7174;DHT22;3628;48.654;8.932;2024-02-14T00:56:55;3.20;99.90
7174;DHT22;3628;48.654;8.932;2024-02-14T00:59:20;3.30;99.90
7174;DHT22;3628;48.654;8.932;2024-02-14T01:01:46;3.30;99.90
7174;DHT22;3628;48.654;8.932;2024-02-14T01:04:11;3.40;99.90
7174;DHT22;3628;48.654;8.932;2024-02-14T01:06:37;3.40;99.90
7174;DHT22;3628;48.654;8.932;2024-02-14T01:09:03;3.50;99.90
7174;DHT22;3628;48.654;8.932;2024-02-14T01:11:28;3.60;99.90
7174;DHT22;3628;48.654;8.932;2024-02-14T01:13:54;3.60;99.90
7174;DHT22;3628;48.654;8.932;2024-02-14T01:16:20;3.60;99.90
7174;DHT22;3628;48.654;8.932;2024-02-14T01:18:45;3.60;99.90
7174;DHT22;3628;48.654;8.932;2024-02-14T01:21:11;3.70;99.90
7174;DHT22;3628;48.654;8.932;2024-02-14T01:23:37;3.70;99.90
7174;DHT22;3628;48.654;8.932;2024-02-14T01:26:03;3.70;99.90
7174;DHT22;3628;48.654;8.932;2024-02-14T01:28:29;3.70;99.90
7174;DHT22;3628;48.654;8.932;2024-02-14T01:30:54;3.70;99.90
7174;DHT22;3628;48.654;8.932;2024-02-14T01:33:22;3.70;99.90
7174;DHT22;3628;48.654;8.932;2024-02-14T01:35:48;3.70;99.90
7174;DHT22;3628;48.654;8.932;2024-02-14T01:38:13;3.70;99.90
7174;DHT22;3628;48.654;8.932;2024-02-14T01:40:42;3.80;99.90
7174;DHT22;3628;48.654;8.932;2024-02-14T01:43:10;3.80;99.90
7174;DHT22;3628;48.654;8.932;2024-02-14T01:45:35;3.80;99.90
7174;DHT22;3628;48.654;8.932;2024-02-14T01:48:01;3.90;99.90
7174;DHT22;3628;48.654;8.932;2024-02-14T01:50:28;3.90;99.90
7174;DHT22;3628;48.654;8.932;2024-02-14T01:52:56;4.00;99.90
7174;DHT22;3628;48.654;8.932;2024-02-14T01:55:23;4.00;99.90
7174;DHT22;3628;48.654;8.932;2024-02-14T01:57:49;4.00;99.90
7174;DHT22;3628;48.654;8.932;2024-02-14T02:00:15;4.10;99.90
7174;DHT22;3628;48.654;8.932;2024-02-14T02:02:43;4.10;99.90
7174;DHT22;3628;48.654;8.932;2024-02-14T02:05:09;4.10;99.90
7174;DHT22;3628;48.654;8.932;2024-02-14T02:07:35;4.10;99.90
7174;DHT22;3628;48.654;8.932;2024-02-14T02:10:05;4.00;99.90
7174;DHT22;3628;48.654;8.932;2024-02-14T02:12:31;4.00;99.90
7174;DHT22;3628;48.654;8.932;2024-02-14T02:14:57;3.90;99.90
7174;DHT22;3628;48.654;8.932;2024-02-14T02:17:24;3.90;99.90
7174;DHT22;3628;48.654;8.932;2024-02-14T02:19:49;4.00;99.90
7174;DHT22;3628;48.654;8.932;2024-02-14T02:22:15;4.00;99.90
7174;DHT22;3628;48.654;8.932;2024-02-14T02:24:40;4.00;99.90
7174;DHT22;3628;48.654;8.932;2024-02-14T02:27:06;4.00;99.90
7174;DHT22;3628;48.654;8.932;2024-02-14T02:29:31;4.00;99.90
7174;DHT22;3628;48.654;8.932;2024-02-14T02:31:58;3.90;99.90
7174;DHT22;3628;48.654;8.932;2024-02-14T02:34:23;3.90;99.90
7174;DHT22;3628;48.654;8.932;2024-02-14T02:36:49;3.80;99.90
7174;DHT22;3628;48.654;8.932;2024-02-14T02:39:16;3.80;99.90
7174;DHT22;3628;48.654;8.932;2024-02-14T02:41:42;3.80;99.90
7174;DHT22;3628;48.654;8.932;2024-02-14T02:44:07;3.80;99.90
7174;DHT22;3628;48.654;8.932;2024-02-14T02:46:33;3.70;99.90
7174;DHT22;3628;48.654;8.932;2024-02-14T02:48:59;3.70;99.90
7174;DHT22;3628;48.654;8.932;2024-02-14T02:51:24;3.70;99.90
7174;DHT22;3628;48.654;8.932;2024-02-14T02:53:50;3.60;99.90
7174;DHT22;3628;48.654;8.932;2024-02-14T02:56:17;3.60;99.90
7174;DHT22;3628;48.654;8.932;2024-02-14T02:58:44;3.60;99.90
7174;DHT22;3628;48.654;8.932;2024-02-14T03:01:10;3.60;99.90
7174;DHT22;3628;48.654;8.932;2024-02-14T03:03:37;3.60;99.90
7174;DHT22;3628;48.654;8.932;2024-02-14T03:06:04;3.60;99.90
7174;DHT22;3628;48.654;8.932;2024-02-14T03:08:30;3.60;99.90
7174;DHT22;3628;48.654;8.932;2024-02-14T03:11:04;3.70;99.90
7174;DHT22;3628;48.654;8.932;2024-02-14T03:13:30;3.70;99.90
7174;DHT22;3628;48.654;8.932;2024-02-14T03:15:56;3.70;99.90
7174;DHT22;3628;48.654;8.932;2024-02-14T03:18:26;3.80;99.90
7174;DHT22;3628;48.654;8.932;2024-02-14T03:20:52;3.70;99.90
7174;DHT22;3628;48.654;8.932;2024-02-14T03:23:19;3.70;99.90
7174;DHT22;3628;48.654;8.932;2024-02-14T03:25:45;3.70;99.90
7174;DHT22;3628;48.654;8.932;2024-02-14T03:28:10;3.70;99.90
7174;DHT22;3628;48.654;8.932;2024-02-14T03:30:38;3.60;99.90
7174;DHT22;3628;48.654;8.932;2024-02-14T03:33:04;3.60;99.90
7174;DHT22;3628;48.654;8.932;2024-02-14T03:35:30;3.60;99.90
7174;DHT22;3628;48.654;8.932;2024-02-14T03:37:56;3.50;99.90
7174;DHT22;3628;48.654;8.932;2024-02-14T03:40:21;3.50;99.90
7174;DHT22;3628;48.654;8.932;2024-02-14T03:42:47;3.50;99.90
7174;DHT22;3628;48.654;8.932;2024-02-14T03:45:13;3.50;99.90
7174;DHT22;3628;48.654;8.932;2024-02-14T03:47:39;3.50;99.90
7174;DHT22;3628;48.654;8.932;2024-02-14T03:50:06;3.50;99.90
7174;DHT22;3628;48.654;8.932;2024-02-14T03:52:32;3.60;99.90
7174;DHT22;3628;48.654;8.932;2024-02-14T03:54:59;3.60;99.90
7174;DHT22;3628;48.654;8.932;2024-02-14T03:57:25;3.70;99.90
7174;DHT22;3628;48.654;8.932;2024-02-14T03:59:59;3.70;99.90
7174;DHT22;3628;48.654;8.932;2024-02-14T04:02:24;3.70;99.90
7174;DHT22;3628;48.654;8.932;2024-02-14T04:04:53;3.80;99.90
7174;DHT22;3628;48.654;8.932;2024-02-14T04:07:19;3.80;99.90
7174;DHT22;3628;48.654;8.932;2024-02-14T04:09:44;3.80;99.90
7174;DHT22;3628;48.654;8.932;2024-02-14T04:12:10;3.80;99.90
7174;DHT22;3628;48.654;8.932;2024-02-14T04:14:36;3.70;99.90
7174;DHT22;3628;48.654;8.932;2024-02-14T04:17:03;3.70;99.90
7174;DHT22;3628;48.654;8.932;2024-02-14T04:19:29;3.70;99.90
7174;DHT22;3628;48.654;8.932;2024-02-14T04:21:54;3.70;99.90
7174;DHT22;3628;48.654;8.932;2024-02-14T04:24:20;3.70;99.90
7174;DHT22;3628;48.654;8.932;2024-02-14T04:26:46;3.70;99.90
7174;DHT22;3628;48.654;8.932;2024-02-14T04:29:13;3.80;99.90
7174;DHT22;3628;48.654;8.932;2024-02-14T04:31:39;3.80;99.90
7174;DHT22;3628;48.654;8.932;2024-02-14T04:34:04;3.90;99.90
7174;DHT22;3628;48.654;8.932;2024-02-14T04:36:32;3.90;99.90
7174;DHT22;3628;48.654;8.932;2024-02-14T04:38:58;3.90;99.90
7174;DHT22;3628;48.654;8.932;2024-02-14T04:41:24;3.90;99.90
7174;DHT22;3628;48.654;8.932;2024-02-14T04:43:49;3.90;99.90
7174;DHT22;3628;48.654;8.932;2024-02-14T04:46:15;3.80;99.90
7174;DHT22;3628;48.654;8.932;2024-02-14T04:48:40;3.80;99.90
7174;DHT22;3628;48.654;8.932;2024-02-14T04:51:06;3.80;99.90
7174;DHT22;3628;48.654;8.932;2024-02-14T04:53:31;3.70;99.90
7174;DHT22;3628;48.654;8.932;2024-02-14T04:55:57;3.70;99.90
7174;DHT22;3628;48.654;8.932;2024-02-14T04:58:23;3.70;99.90
7174;DHT22;3628;48.654;8.932;2024-02-14T05:00:49;3.70;99.90
7174;DHT22;3628;48.654;8.932;2024-02-14T05:03:15;3.80;99.90
7174;DHT22;3628;48.654;8.932;2024-02-14T05:05:41;3.80;99.90
7174;DHT22;3628;48.654;8.932;2024-02-14T05:08:07;3.90;99.90
7174;DHT22;3628;48.654;8.932;2024-02-14T05:10:33;3.90;99.90
7174;DHT22;3628;48.654;8.932;2024-02-14T05:12:58;4.10;99.90
7174;DHT22;3628;48.654;8.932;2024-02-14T05:15:24;4.10;99.90
7174;DHT22;3628;48.654;8.932;2024-02-14T05:17:50;4.20;99.90
7174;DHT22;3628;48.654;8.932;2024-02-14T05:20:16;4.30;99.90
7174;DHT22;3628;48.654;8.932;2024-02-14T05:22:42;4.40;99.90
7174;DHT22;3628;48.654;8.932;2024-02-14T05:25:08;4.40;99.90
7174;DHT22;3628;48.654;8.932;2024-02-14T05:27:38;4.50;99.90
7174;DHT22;3628;48.654;8.932;2024-02-14T05:30:04;4.50;99.90
7174;DHT22;3628;48.654;8.932;2024-02-14T05:32:34;4.50;99.90
7174;DHT22;3628;48.654;8.932;2024-02-14T05:34:59;4.50;99.90
7174;DHT22;3628;48.654;8.932;2024-02-14T05:37:25;4.60;99.90
7174;DHT22;3628;48.654;8.932;2024-02-14T05:39:54;4.50;99.90
7174;DHT22;3628;48.654;8.932;2024-02-14T05:42:20;4.60;99.90
7174;DHT22;3628;48.654;8.932;2024-02-14T05:44:46;4.60;99.90
7174;DHT22;3628;48.654;8.932;2024-02-14T05:47:11;4.60;99.90
7174;DHT22;3628;48.654;8.932;2024-02-14T05:49:40;4.60;99.90
7174;DHT22;3628;48.654;8.932;2024-02-14T05:52:09;4.60;99.90
7174;DHT22;3628;48.654;8.932;2024-02-14T05:54:35;4.60;99.90
7174;DHT22;3628;48.654;8.932;2024-02-14T05:57:01;4.60;99.90
7174;DHT22;3628;48.654;8.932;2024-02-14T05:59:30;4.50;99.90
7174;DHT22;3628;48.654;8.932;2024-02-14T06:01:56;4.50;99.90
7174;DHT22;3628;48.654;8.932;2024-02-14T06:04:21;4.50;99.90
7174;DHT22;3628;48.654;8.932;2024-02-14T06:06:47;4.60;99.90
7174;DHT22;3628;48.654;8.932;2024-02-14T06:09:12;4.60;99.90
7174;DHT22;3628;48.654;8.932;2024-02-14T06:11:39;4.60;99.90
7174;DHT22;3628;48.654;8.932;2024-02-14T06:14:08;4.60;99.90
7174;DHT22;3628;48.654;8.932;2024-02-14T06:16:34;4.60;99.90
7174;DHT22;3628;48.654;8.932;2024-02-14T06:19:01;4.60;99.90
7174;DHT22;3628;48.654;8.932;2024-02-14T06:21:27;4.60;99.90
7174;DHT22;3628;48.654;8.932;2024-02-14T06:23:53;4.60;99.90
7174;DHT22;3628;48.654;8.932;2024-02-14T06:26:18;4.70;99.90
7174;DHT22;3628;48.654;8.932;2024-02-14T06:28:44;4.70;99.90
7174;DHT22;3628;48.654;8.932;2024-02-14T06:31:10;4.70;99.90
7174;DHT22;3628;48.654;8.932;2024-02-14T06:33:36;4.80;99.90
7174;DHT22;3628;48.654;8.932;2024-02-14T06:36:02;4.80;99.90
7174;DHT22;3628;48.654;8.932;2024-02-14T06:38:27;4.80;99.90
7174;DHT22;3628;48.654;8.932;2024-02-14T06:40:53;4.80;99.90
7174;DHT22;3628;48.654;8.932;2024-02-14T06:43:18;4.80;99.90
7174;DHT22;3628;48.654;8.932;2024-02-14T06:45:45;4.80;99.90
7174;DHT22;3628;48.654;8.932;2024-02-14T06:48:11;4.80;99.90
7174;DHT22;3628;48.654;8.932;2024-02-14T06:50:36;4.80;99.90
7174;DHT22;3628;48.654;8.932;2024-02-14T06:53:02;4.80;99.90
7174;DHT22;3628;48.654;8.932;2024-02-14T06:55:27;4.80;99.90
7174;DHT22;3628;48.654;8.932;2024-02-14T06:57:54;4.80;99.90
7174;DHT22;3628;48.654;8.932;2024-02-14T07:00:20;4.90;99.90
7174;DHT22;3628;48.654;8.932;2024-02-14T07:02:45;4.90;99.90
7174;DHT22;3628;48.654;8.932;2024-02-14T07:05:13;4.90;99.90
7174;DHT22;3628;48.654;8.932;2024-02-14T07:07:40;5.00;99.90
7174;DHT22;3628;48.654;8.932;2024-02-14T07:10:07;5.00;99.90
7174;DHT22;3628;48.654;8.932;2024-02-14T07:12:32;5.10;99.90
7174;DHT22;3628;48.654;8.932;2024-02-14T07:14:58;5.20;99.90
7174;DHT22;3628;48.654;8.932;2024-02-14T07:17:24;5.20;99.90
7174;DHT22;3628;48.654;8.932;2024-02-14T07:19:49;5.30;99.90
7174;DHT22;3628;48.654;8.932;2024-02-14T07:22:16;5.40;99.90
7174;DHT22;3628;48.654;8.932;2024-02-14T07:24:44;5.50;99.90
7174;DHT22;3628;48.654;8.932;2024-02-14T07:27:12;5.50;99.90
7174;DHT22;3628;48.654;8.932;2024-02-14T07:29:38;5.60;99.90
7174;DHT22;3628;48.654;8.932;2024-02-14T07:32:04;5.70;99.90
7174;DHT22;3628;48.654;8.932;2024-02-14T07:34:29;5.80;99.90
7174;DHT22;3628;48.654;8.932;2024-02-14T07:36:55;5.90;99.90
7174;DHT22;3628;48.654;8.932;2024-02-14T07:39:20;6.00;99.90
7174;DHT22;3628;48.654;8.932;2024-02-14T07:41:46;6.20;99.90
7174;DHT22;3628;48.654;8.932;2024-02-14T07:44:12;6.30;99.90
7174;DHT22;3628;48.654;8.932;2024-02-14T07:46:38;6.40;99.90
7174;DHT22;3628;48.654;8.932;2024-02-14T07:49:04;6.50;99.90
7174;DHT22;3628;48.654;8.932;2024-02-14T07:51:30;6.60;99.90
7174;DHT22;3628;48.654;8.932;2024-02-14T07:54:05;6.70;99.90
7174;DHT22;3628;48.654;8.932;2024-02-14T07:56:31;6.90;99.90
7174;DHT22;3628;48.654;8.932;2024-02-14T07:58:57;7.00;99.90
7174;DHT22;3628;48.654;8.932;2024-02-14T08:01:23;7.10;99.90
7174;DHT22;3628;48.654;8.932;2024-02-14T08:03:48;7.20;99.90
7174;DHT22;3628;48.654;8.932;2024-02-14T08:06:14;7.30;99.90
7174;DHT22;3628;48.654;8.932;2024-02-14T08:08:40;7.30;99.90
7174;DHT22;3628;48.654;8.932;2024-02-14T08:11:05;7.40;99.90
7174;DHT22;3628;48.654;8.932;2024-02-14T08:13:31;7.40;99.90
7174;DHT22;3628;48.654;8.932;2024-02-14T08:15:57;7.50;99.90
7174;DHT22;3628;48.654;8.932;2024-02-14T08:18:24;7.50;99.90
7174;DHT22;3628;48.654;8.932;2024-02-14T08:20:49;7.60;99.90
7174;DHT22;3628;48.654;8.932;2024-02-14T08:23:15;7.60;99.90
7174;DHT22;3628;48.654;8.932;2024-02-14T08:25:40;7.60;99.90
7174;DHT22;3628;48.654;8.932;2024-02-14T08:28:09;7.70;99.90
7174;DHT22;3628;48.654;8.932;2024-02-14T08:30:35;7.80;99.90
7174;DHT22;3628;48.654;8.932;2024-02-14T08:33:01;7.90;99.90
7174;DHT22;3628;48.654;8.932;2024-02-14T08:35:26;8.00;99.90
7174;DHT22;3628;48.654;8.932;2024-02-14T08:37:52;8.10;99.90
7174;DHT22;3628;48.654;8.932;2024-02-14T08:40:17;8.10;99.90
7174;DHT22;3628;48.654;8.932;2024-02-14T08:42:43;8.20;99.90
7174;DHT22;3628;48.654;8.932;2024-02-14T08:45:09;8.30;99.90
7174;DHT22;3628;48.654;8.932;2024-02-14T08:47:34;8.30;99.90
7174;DHT22;3628;48.654;8.932;2024-02-14T08:50:00;8.40;99.90
7174;DHT22;3628;48.654;8.932;2024-02-14T08:52:25;8.40;99.90
7174;DHT22;3628;48.654;8.932;2024-02-14T08:54:52;8.40;99.90
7174;DHT22;3628;48.654;8.932;2024-02-14T08:57:17;8.40;99.90
7174;DHT22;3628;48.654;8.932;2024-02-14T08:59:44;8.40;99.90
7174;DHT22;3628;48.654;8.932;2024-02-14T09:02:12;8.40;99.90
7174;DHT22;3628;48.654;8.932;2024-02-14T09:04:39;8.30;99.90
7174;DHT22;3628;48.654;8.932;2024-02-14T09:07:06;8.30;99.90
7174;DHT22;3628;48.654;8.932;2024-02-14T09:09:32;8.30;99.90
7174;DHT22;3628;48.654;8.932;2024-02-14T09:11:58;8.40;99.90
7174;DHT22;3628;48.654;8.932;2024-02-14T09:14:30;8.40;99.90
7174;DHT22;3628;48.654;8.932;2024-02-14T09:16:56;8.50;99.90
7174;DHT22;3628;48.654;8.932;2024-02-14T09:19:23;8.50;99.90
7174;DHT22;3628;48.654;8.932;2024-02-14T09:21:49;8.60;99.90
7174;DHT22;3628;48.654;8.932;2024-02-14T09:24:14;8.70;99.90
7174;DHT22;3628;48.654;8.932;2024-02-14T09:26:40;8.80;99.90
7174;DHT22;3628;48.654;8.932;2024-02-14T09:29:06;8.80;99.90
7174;DHT22;3628;48.654;8.932;2024-02-14T09:31:31;8.90;99.90
7174;DHT22;3628;48.654;8.932;2024-02-14T09:33:57;9.10;99.90
7174;DHT22;3628;48.654;8.932;2024-02-14T09:36:26;9.20;99.90
7174;DHT22;3628;48.654;8.932;2024-02-14T09:38:52;9.30;99.90
7174;DHT22;3628;48.654;8.932;2024-02-14T09:41:26;9.40;99.90
7174;DHT22;3628;48.654;8.932;2024-02-14T09:43:53;9.50;99.90
7174;DHT22;3628;48.654;8.932;2024-02-14T09:46:18;9.60;99.90
7174;DHT22;3628;48.654;8.932;2024-02-14T09:48:47;9.60;99.90
7174;DHT22;3628;48.654;8.932;2024-02-14T09:51:13;9.60;99.90
7174;DHT22;3628;48.654;8.932;2024-02-14T09:53:40;9.70;99.90
7174;DHT22;3628;48.654;8.932;2024-02-14T09:56:06;9.70;99.90
7174;DHT22;3628;48.654;8.932;2024-02-14T09:58:34;9.80;99.90
7174;DHT22;3628;48.654;8.932;2024-02-14T10:01:00;9.80;99.90
7174;DHT22;3628;48.654;8.932;2024-02-14T10:03:25;9.90;99.90
7174;DHT22;3628;48.654;8.932;2024-02-14T10:05:52;9.90;99.90
7174;DHT22;3628;48.654;8.932;2024-02-14T10:08:20;10.00;99.90
7174;DHT22;3628;48.654;8.932;2024-02-14T10:10:46;10.10;99.90
7174;DHT22;3628;48.654;8.932;2024-02-14T10:13:12;10.40;99.90
7174;DHT22;3628;48.654;8.932;2024-02-14T10:15:37;10.70;99.90
7174;DHT22;3628;48.654;8.932;2024-02-14T10:18:03;11.00;99.90
7174;DHT22;3628;48.654;8.932;2024-02-14T10:20:29;11.20;99.90
7174;DHT22;3628;48.654;8.932;2024-02-14T10:23:03;11.40;99.90
7174;DHT22;3628;48.654;8.932;2024-02-14T10:25:29;11.60;99.90
7174;DHT22;3628;48.654;8.932;2024-02-14T10:27:56;11.80;99.90
7174;DHT22;3628;48.654;8.932;2024-02-14T10:30:22;11.90;99.90
7174;DHT22;3628;48.654;8.932;2024-02-14T10:32:48;12.10;99.90
7174;DHT22;3628;48.654;8.932;2024-02-14T10:35:14;12.40;99.90
7174;DHT22;3628;48.654;8.932;2024-02-14T10:37:40;12.60;99.90
7174;DHT22;3628;48.654;8.932;2024-02-14T10:40:06;12.70;99.90
7174;DHT22;3628;48.654;8.932;2024-02-14T10:42:33;12.80;99.90
7174;DHT22;3628;48.654;8.932;2024-02-14T10:44:59;12.80;99.90
7174;DHT22;3628;48.654;8.932;2024-02-14T10:47:31;12.90;99.90
7174;DHT22;3628;48.654;8.932;2024-02-14T10:50:01;12.90;99.90
7174;DHT22;3628;48.654;8.932;2024-02-14T10:52:37;12.90;99.90
7174;DHT22;3628;48.654;8.932;2024-02-14T10:55:06;12.90;99.90
7174;DHT22;3628;48.654;8.932;2024-02-14T10:57:32;13.00;99.90
7174;DHT22;3628;48.654;8.932;2024-02-14T11:00:09;13.10;99.90
7174;DHT22;3628;48.654;8.932;2024-02-14T11:02:36;13.10;99.90
7174;DHT22;3628;48.654;8.932;2024-02-14T11:05:03;13.00;99.90
7174;DHT22;3628;48.654;8.932;2024-02-14T11:07:29;12.90;99.90
7174;DHT22;3628;48.654;8.932;2024-02-14T11:10:05;12.90;99.90
7174;DHT22;3628;48.654;8.932;2024-02-14T11:12:34;12.90;99.90
7174;DHT22;3628;48.654;8.932;2024-02-14T11:17:39;12.80;99.90
7174;DHT22;3628;48.654;8.932;2024-02-14T11:20:20;12.80;99.90
7174;DHT22;3628;48.654;8.932;2024-02-14T11:23:02;12.90;99.90
7174;DHT22;3628;48.654;8.932;2024-02-14T11:25:32;12.80;99.90
7174;DHT22;3628;48.654;8.932;2024-02-14T11:28:00;12.80;99.90
7174;DHT22;3628;48.654;8.932;2024-02-14T11:30:33;12.70;99.90
7174;DHT22;3628;48.654;8.932;2024-02-14T11:33:18;12.70;99.90
7174;DHT22;3628;48.654;8.932;2024-02-14T11:35:48;12.80;99.90
7174;DHT22;3628;48.654;8.932;2024-02-14T11:38:17;12.70;99.90
7174;DHT22;3628;48.654;8.932;2024-02-14T11:40:43;12.70;99.90
7174;DHT22;3628;48.654;8.932;2024-02-14T11:43:19;12.60;99.90
7174;DHT22;3628;48.654;8.932;2024-02-14T11:45:47;12.60;99.90
7174;DHT22;3628;48.654;8.932;2024-02-14T11:48:17;12.70;99.90
7174;DHT22;3628;48.654;8.932;2024-02-14T11:50:44;12.80;99.90
7174;DHT22;3628;48.654;8.932;2024-02-14T11:53:11;12.90;99.90
7174;DHT22;3628;48.654;8.932;2024-02-14T11:55:40;13.00;99.90
7174;DHT22;3628;48.654;8.932;2024-02-14T11:58:10;13.00;99.90
7174;DHT22;3628;48.654;8.932;2024-02-14T12:00:40;13.00;99.90
7174;DHT22;3628;48.654;8.932;2024-02-14T12:03:26;12.90;99.90
7174;DHT22;3628;48.654;8.932;2024-02-14T12:05:53;12.80;99.90
7174;DHT22;3628;48.654;8.932;2024-02-14T12:08:19;12.90;99.90
7174;DHT22;3628;48.654;8.932;2024-02-14T12:10:46;12.90;99.90
7174;DHT22;3628;48.654;8.932;2024-02-14T12:13:20;13.00;99.90
7174;DHT22;3628;48.654;8.932;2024-02-14T12:15:47;12.90;99.90
7174;DHT22;3628;48.654;8.932;2024-02-14T12:18:13;12.90;99.90
7174;DHT22;3628;48.654;8.932;2024-02-14T12:20:42;12.90;99.90
7174;DHT22;3628;48.654;8.932;2024-02-14T12:23:14;12.90;99.90
7174;DHT22;3628;48.654;8.932;2024-02-14T12:25:42;12.80;99.90
7174;DHT22;3628;48.654;8.932;2024-02-14T12:28:08;12.90;99.90
7174;DHT22;3628;48.654;8.932;2024-02-14T12:30:43;13.00;99.90
7174;DHT22;3628;48.654;8.932;2024-02-14T12:33:12;12.90;99.90
7174;DHT22;3628;48.654;8.932;2024-02-14T12:35:49;12.80;99.90
7174;DHT22;3628;48.654;8.932;2024-02-14T12:38:17;12.80;99.90
7174;DHT22;3628;48.654;8.932;2024-02-14T12:40:43;12.80;99.90
7174;DHT22;3628;48.654;8.932;2024-02-14T12:43:13;12.80;99.90
7174;DHT22;3628;48.654;8.932;2024-02-14T12:45:40;12.80;99.90
7174;DHT22;3628;48.654;8.932;2024-02-14T12:48:07;12.80;99.90
7174;DHT22;3628;48.654;8.932;2024-02-14T12:50:39;12.90;99.90
7174;DHT22;3628;48.654;8.932;2024-02-14T12:53:05;12.80;99.90
7174;DHT22;3628;48.654;8.932;2024-02-14T12:55:30;12.90;99.90
7174;DHT22;3628;48.654;8.932;2024-02-14T12:57:56;12.90;99.90
7174;DHT22;3628;48.654;8.932;2024-02-14T13:00:23;12.90;99.90
7174;DHT22;3628;48.654;8.932;2024-02-14T13:02:49;12.90;99.90
7174;DHT22;3628;48.654;8.932;2024-02-14T13:05:15;12.90;99.90
7174;DHT22;3628;48.654;8.932;2024-02-14T13:07:42;12.90;99.90
7174;DHT22;3628;48.654;8.932;2024-02-14T13:10:08;12.90;99.90
7174;DHT22;3628;48.654;8.932;2024-02-14T13:12:36;13.00;99.90
7174;DHT22;3628;48.654;8.932;2024-02-14T13:15:02;13.00;99.90
7174;DHT22;3628;48.654;8.932;2024-02-14T13:17:28;13.00;99.90
7174;DHT22;3628;48.654;8.932;2024-02-14T13:19:54;13.00;99.90
7174;DHT22;3628;48.654;8.932;2024-02-14T13:22:20;13.00;99.90
7174;DHT22;3628;48.654;8.932;2024-02-14T13:24:45;13.00;99.90
7174;DHT22;3628;48.654;8.932;2024-02-14T13:27:11;13.10;99.90
7174;DHT22;3628;48.654;8.932;2024-02-14T13:29:37;13.10;99.90
7174;DHT22;3628;48.654;8.932;2024-02-14T13:32:03;13.20;99.90
7174;DHT22;3628;48.654;8.932;2024-02-14T13:34:30;13.30;99.90
7174;DHT22;3628;48.654;8.932;2024-02-14T13:36:56;13.30;99.90
7174;DHT22;3628;48.654;8.932;2024-02-14T13:39:22;13.30;99.90
7174;DHT22;3628;48.654;8.932;2024-02-14T13:41:47;13.30;99.90
7174;DHT22;3628;48.654;8.932;2024-02-14T13:44:13;13.40;99.90
7174;DHT22;3628;48.654;8.932;2024-02-14T13:46:43;13.40;99.90
7174;DHT22;3628;48.654;8.932;2024-02-14T13:49:10;13.40;99.90
7174;DHT22;3628;48.654;8.932;2024-02-14T13:51:37;13.40;99.90
7174;DHT22;3628;48.654;8.932;2024-02-14T13:54:02;13.40;99.90
7174;DHT22;3628;48.654;8.932;2024-02-14T13:56:29;13.30;99.90
7174;DHT22;3628;48.654;8.932;2024-02-14T13:58:54;13.20;99.90
7174;DHT22;3628;48.654;8.932;2024-02-14T14:01:20;13.20;99.90
7174;DHT22;3628;48.654;8.932;2024-02-14T14:03:45;13.20;99.90
7174;DHT22;3628;48.654;8.932;2024-02-14T14:06:13;13.10;99.90
7174;DHT22;3628;48.654;8.932;2024-02-14T14:08:39;13.10;99.90
7174;DHT22;3628;48.654;8.932;2024-02-14T14:11:05;13.10;99.90
7174;DHT22;3628;48.654;8.932;2024-02-14T14:13:31;13.10;99.90
7174;DHT22;3628;48.654;8.932;2024-02-14T14:15:59;13.10;99.90
7174;DHT22;3628;48.654;8.932;2024-02-14T14:18:24;13.00;99.90
7174;DHT22;3628;48.654;8.932;2024-02-14T14:20:50;13.00;99.90
7174;DHT22;3628;48.654;8.932;2024-02-14T14:23:15;13.00;99.90
7174;DHT22;3628;48.654;8.932;2024-02-14T14:25:41;13.00;99.90
7174;DHT22;3628;48.654;8.932;2024-02-14T14:28:07;13.00;99.90
7174;DHT22;3628;48.654;8.932;2024-02-14T14:30:38;13.10;99.90
7174;DHT22;3628;48.654;8.932;2024-02-14T14:33:06;13.20;99.90
7174;DHT22;3628;48.654;8.932;2024-02-14T14:35:35;13.30;99.90
7174;DHT22;3628;48.654;8.932;2024-02-14T14:38:04;13.30;99.90
7174;DHT22;3628;48.654;8.932;2024-02-14T14:40:30;13.30;99.90
7174;DHT22;3628;48.654;8.932;2024-02-14T14:42:56;13.40;99.90
7174;DHT22;3628;48.654;8.932;2024-02-14T14:45:21;13.40;99.90
7174;DHT22;3628;48.654;8.932;2024-02-14T14:47:47;13.40;99.90
7174;DHT22;3628;48.654;8.932;2024-02-14T14:50:13;13.40;99.90
7174;DHT22;3628;48.654;8.932;2024-02-14T14:52:41;13.40;99.90
7174;DHT22;3628;48.654;8.932;2024-02-14T14:55:09;13.40;99.90
7174;DHT22;3628;48.654;8.932;2024-02-14T14:57:35;13.40;99.90
7174;DHT22;3628;48.654;8.932;2024-02-14T15:00:08;13.50;99.90
7174;DHT22;3628;48.654;8.932;2024-02-14T15:02:37;13.40;99.90
7174;DHT22;3628;48.654;8.932;2024-02-14T15:05:04;13.50;99.90
7174;DHT22;3628;48.654;8.932;2024-02-14T15:07:30;13.50;99.90
7174;DHT22;3628;48.654;8.932;2024-02-14T15:09:55;13.50;99.90
7174;DHT22;3628;48.654;8.932;2024-02-14T15:12:21;13.50;99.90
7174;DHT22;3628;48.654;8.932;2024-02-14T15:14:51;13.60;99.90
7174;DHT22;3628;48.654;8.932;2024-02-14T15:17:16;13.60;99.90
7174;DHT22;3628;48.654;8.932;2024-02-14T15:19:42;13.70;99.90
7174;DHT22;3628;48.654;8.932;2024-02-14T15:22:07;13.70;99.90
7174;DHT22;3628;48.654;8.932;2024-02-14T15:24:33;13.70;99.90
7174;DHT22;3628;48.654;8.932;2024-02-14T15:27:01;13.70;99.90
7174;DHT22;3628;48.654;8.932;2024-02-14T15:29:28;13.70;99.90
7174;DHT22;3628;48.654;8.932;2024-02-14T15:32:11;13.60;99.90
7174;DHT22;3628;48.654;8.932;2024-02-14T15:34:56;13.60;99.90
7174;DHT22;3628;48.654;8.932;2024-02-14T15:37:24;13.50;99.90
7174;DHT22;3628;48.654;8.932;2024-02-14T15:39:50;13.40;99.90
7174;DHT22;3628;48.654;8.932;2024-02-14T15:42:17;13.40;99.90
7174;DHT22;3628;48.654;8.932;2024-02-14T15:44:43;13.30;99.90
7174;DHT22;3628;48.654;8.932;2024-02-14T15:47:09;13.30;99.90
7174;DHT22;3628;48.654;8.932;2024-02-14T15:49:35;13.30;99.90
7174;DHT22;3628;48.654;8.932;2024-02-14T15:52:01;13.30;99.90
7174;DHT22;3628;48.654;8.932;2024-02-14T15:54:27;13.20;99.90
7174;DHT22;3628;48.654;8.932;2024-02-14T15:56:53;13.10;99.90
7174;DHT22;3628;48.654;8.932;2024-02-14T15:59:19;13.10;99.90
7174;DHT22;3628;48.654;8.932;2024-02-14T16:01:44;13.10;99.90
7174;DHT22;3628;48.654;8.932;2024-02-14T16:04:10;13.00;99.90
7174;DHT22;3628;48.654;8.932;2024-02-14T16:06:35;13.00;99.90
7174;DHT22;3628;48.654;8.932;2024-02-14T16:09:02;13.00;99.90
7174;DHT22;3628;48.654;8.932;2024-02-14T16:11:31;13.10;99.90